Time;durP1;ratioP1;P1;durP2;ratioP2;P2;SDS_P1;SDS_P2;PMS_P1;PMS_P2;Temp;Humidity;BMP_temperature;BMP_pressure;BME280_temperature;BME280_humidity;BME280_pressure;Samples;Min_cycle;Max_cycle;Signal;HPM_P1;HPM_P2
2023/06/12 00:01:19;;;;;;;7.25;5.72;;;;;;;-144.87;100.00;61487.56;5019010;28;20037;-70
2023/06/12 00:03:47;;;;;;;8.52;6.20;;;;;;;-144.87;100.00;61487.56;5025896;28;20034;-72
2023/06/12 00:06:16;;;;;;;10.75;6.68;;;;;;;-144.87;100.00;61487.56;5021497;28;20132;-69
2023/06/12 00:08:42;;;;;;;11.45;6.10;;;;;;;-144.87;100.00;61487.56;4987930;28;20042;-70
2023/06/12 00:11:12;;;;;;;9.48;5.97;;;;;;;-144.87;100.00;61487.56;4978818;28;20045;-71
2023/06/12 00:13:46;;;;;;;9.00;5.88;;;;;;;-144.87;100.00;61487.56;4978710;28;20030;-71
2023/06/12 00:16:13;;;;;;;12.85;5.78;;;;;;;-144.87;100.00;61487.56;4983873;28;20125;-70
2023/06/12 00:18:39;;;;;;;11.82;5.95;;;;;;;-144.87;100.00;61487.56;4985600;28;20038;-70
2023/06/12 00:21:10;;;;;;;8.50;5.97;;;;;;;-144.87;100.00;61487.56;4977482;28;20041;-70
2023/06/12 00:23:36;;;;;;;;;;;;;;;-144.87;100.00;61487.56;4994372;28;20034;-71
2023/06/12 00:26:03;;;;;;;8.25;5.95;;;;;;;-144.87;100.00;61487.56;4986128;28;19914;-71
2023/06/12 00:28:30;;;;;;;10.00;6.95;;;;;;;-144.87;100.00;61487.56;4996188;28;20038;-70
2023/06/12 00:30:57;;;;;;;12.85;6.70;;;;;;;-144.87;100.00;61487.56;4982903;28;20104;-70
2023/06/12 00:33:23;;;;;;;9.32;5.60;;;;;;;-144.87;100.00;61487.56;4984692;28;20156;-71
2023/06/12 00:35:51;;;;;;;12.35;6.22;;;;;;;-144.87;100.00;61487.56;4989321;28;20069;-70
2023/06/12 00:38:17;;;;;;;8.15;6.10;;;;;;;-144.87;100.00;61487.56;4974396;28;20133;-70
2023/06/12 00:40:44;;;;;;;8.77;6.03;;;;;;;-144.87;100.00;61487.56;4965023;28;20514;-71
2023/06/12 00:43:11;;;;;;;9.20;6.90;;;;;;;-144.87;100.00;61487.56;5001179;28;20058;-71
2023/06/12 00:45:37;;;;;;;8.63;5.97;;;;;;;-144.87;100.00;61487.56;5000352;28;20050;-73
2023/06/12 00:48:05;;;;;;;8.02;6.35;;;;;;;-144.87;100.00;61487.56;4982708;28;20065;-70
2023/06/12 00:50:32;;;;;;;11.82;6.18;;;;;;;-144.87;100.00;61487.56;4976020;28;20173;-71
2023/06/12 00:52:59;;;;;;;8.50;6.15;;;;;;;-144.87;100.00;61487.56;4994240;28;20038;-69
2023/06/12 00:55:27;;;;;;;11.63;6.32;;;;;;;-144.87;100.00;61487.56;4982122;28;20185;-71
2023/06/12 00:57:54;;;;;;;11.45;6.47;;;;;;;-144.87;100.00;61487.56;4965301;28;20060;-71
2023/06/12 01:00:20;;;;;;;9.10;5.70;;;;;;;-144.87;100.00;61487.56;5000484;28;20158;-70
2023/06/12 01:03:07;;;;;;;8.40;6.13;;;;;;;-144.87;100.00;61487.56;4976431;28;20041;-70
2023/06/12 01:05:40;;;;;;;8.35;6.78;;;;;;;-144.87;100.00;61487.56;4995606;28;20057;-72
2023/06/12 01:08:32;;;;;;;8.73;5.90;;;;;;;-144.87;100.00;61487.56;5006908;28;20050;-70
2023/06/12 01:11:08;;;;;;;10.30;5.88;;;;;;;-144.87;100.00;61487.56;5009796;28;20025;-69
2023/06/12 01:13:35;;;;;;;7.35;6.00;;;;;;;-144.87;100.00;61487.56;5006675;28;20072;-70
2023/06/12 01:16:02;;;;;;;10.05;5.57;;;;;;;-144.87;100.00;61487.56;5017804;28;20041;-70
2023/06/12 01:18:32;;;;;;;12.93;6.55;;;;;;;-144.87;100.00;61487.56;5004080;28;20059;-70
2023/06/12 01:21:01;;;;;;;;;;;;;;;-144.87;100.00;61487.56;5015879;28;20045;-71
2023/06/12 01:24:05;;;;;;;7.72;5.85;;;;;;;-144.87;100.00;61487.56;5000273;28;20011;-70
2023/06/12 01:27:09;;;;;;;9.23;6.10;;;;;;;-144.87;100.00;61487.56;5011475;28;20064;-70
2023/06/12 01:30:04;;;;;;;12.70;6.55;;;;;;;-144.87;100.00;61487.56;5022882;28;20080;-71
2023/06/12 01:32:33;;;;;;;12.00;6.55;;;;;;;-144.87;100.00;61487.56;5014713;28;20191;-71
2023/06/12 01:35:07;;;;;;;8.70;6.20;;;;;;;-144.87;100.00;61487.56;5021312;28;20107;-70
2023/06/12 01:38:16;;;;;;;9.90;6.30;;;;;;;-144.87;100.00;61487.56;5020992;28;20301;-71
2023/06/12 01:40:45;;;;;;;11.25;6.45;;;;;;;-144.87;100.00;61487.56;4947867;29;20039;-72
2023/06/12 01:43:11;;;;;;;8.82;6.85;;;;;;;-144.87;100.00;61487.56;4994929;28;20084;-71
2023/06/12 01:45:40;;;;;;;8.50;6.70;;;;;;;-144.87;100.00;61487.56;5021317;28;20479;-70
2023/06/12 01:48:06;;;;;;;11.88;6.50;;;;;;;-144.87;100.00;61487.56;5015379;28;20037;-70
2023/06/12 01:50:33;;;;;;;10.45;6.53;;;;;;;-144.87;100.00;61487.56;5024753;28;20038;-70
2023/06/12 01:52:59;;;;;;;10.50;6.15;;;;;;;-144.87;100.00;61487.56;5021226;28;20034;-70
2023/06/12 01:55:27;;;;;;;11.30;6.53;;;;;;;-144.87;100.00;61487.56;5010320;28;20045;-69
2023/06/12 01:57:54;;;;;;;12.10;6.78;;;;;;;-144.87;100.00;61487.56;5022488;28;20029;-68
2023/06/12 02:00:30;;;;;;;9.82;7.10;;;;;;;-144.87;100.00;61487.56;5024087;28;20040;-68
2023/06/12 02:02:57;;;;;;;9.93;6.70;;;;;;;-144.87;100.00;61487.56;5016439;28;20041;-69
2023/06/12 02:05:27;;;;;;;;;;;;;;;-144.87;100.00;61487.56;5019470;28;20089;-70
2023/06/12 02:07:54;;;;;;;11.10;6.82;;;;;;;-144.87;100.00;61487.56;5040256;28;19993;-70
2023/06/12 02:10:20;;;;;;;10.23;6.53;;;;;;;-144.87;100.00;61487.56;5038967;28;20028;-71
2023/06/12 02:12:47;;;;;;;10.00;6.53;;;;;;;-144.87;100.00;61487.56;5032569;28;20541;-70
2023/06/12 02:15:13;;;;;;;11.27;6.70;;;;;;;-144.87;100.00;61487.56;5040384;28;20030;-70
2023/06/12 02:17:39;;;;;;;10.07;6.95;;;;;;;-144.87;100.00;61487.56;5031649;28;20204;-71
2023/06/12 02:20:06;;;;;;;12.98;6.45;;;;;;;-144.87;100.00;61487.56;5040620;28;20038;-70
2023/06/12 02:22:33;;;;;;;11.93;7.25;;;;;;;-144.87;100.00;61487.56;5037961;28;20353;-71
2023/06/12 02:24:59;;;;;;;9.80;6.93;;;;;;;-144.87;100.00;61487.56;5012170;28;20107;-70
2023/06/12 02:27:27;;;;;;;10.65;7.13;;;;;;;-144.87;100.00;61487.56;5021599;28;20034;-70
2023/06/12 02:29:54;;;;;;;10.57;6.50;;;;;;;-144.87;100.00;61487.56;5006947;28;20379;-69
2023/06/12 02:32:20;;;;;;;12.02;7.03;;;;;;;-144.87;100.00;61487.56;5014956;28;20149;-69
2023/06/12 02:34:48;;;;;;;14.38;6.53;;;;;;;-144.87;100.00;61487.56;5014764;28;20489;-70
2023/06/12 02:37:18;;;;;;;11.65;6.85;;;;;;;-144.87;100.00;61487.56;5033643;28;20048;-69
2023/06/12 02:39:47;;;;;;;15.82;7.63;;;;;;;-144.87;100.00;61487.56;5017800;28;20088;-69
2023/06/12 02:42:14;;;;;;;11.15;6.90;;;;;;;-144.87;100.00;61487.56;5019149;28;20135;-69
2023/06/12 02:44:41;;;;;;;11.93;6.70;;;;;;;-144.87;100.00;61487.56;5019942;28;20033;-70
2023/06/12 02:47:08;;;;;;;13.93;7.07;;;;;;;-144.87;100.00;61487.56;5018716;28;20581;-70
2023/06/12 02:49:44;;;;;;;10.20;6.82;;;;;;;-144.87;100.00;61487.56;5014308;28;20107;-71
2023/06/12 02:52:13;;;;;;;9.90;7.38;;;;;;;-144.87;100.00;61487.56;4995890;28;20026;-70
2023/06/12 02:54:40;;;;;;;11.63;6.85;;;;;;;-144.87;100.00;61487.56;5019779;28;20065;-70
2023/06/12 02:57:06;;;;;;;10.45;6.50;;;;;;;-144.87;100.00;61487.56;5020809;28;20029;-70
2023/06/12 02:59:33;;;;;;;9.27;6.93;;;;;;;-144.87;100.00;61487.56;5019173;28;20038;-70
2023/06/12 03:02:04;;;;;;;10.15;6.63;;;;;;;-144.87;100.00;61487.56;5024664;28;20030;-70
2023/06/12 03:04:44;;;;;;;12.15;7.07;;;;;;;-144.87;100.00;61487.56;5017640;28;20025;-71
2023/06/12 03:07:14;;;;;;;11.05;7.47;;;;;;;-144.87;100.00;61487.56;5006044;28;20049;-71
2023/06/12 03:09:42;;;;;;;11.93;7.45;;;;;;;-144.87;100.00;61487.56;4997625;28;20025;-70
2023/06/12 03:12:09;;;;;;;9.73;6.97;;;;;;;-144.87;100.00;61487.56;5022136;28;20041;-69
2023/06/12 03:14:36;;;;;;;12.40;7.22;;;;;;;-144.87;100.00;61487.56;5009849;28;20053;-71
2023/06/12 03:17:04;;;;;;;16.48;7.50;;;;;;;-144.87;100.00;61487.56;5006004;28;20032;-71
2023/06/12 03:19:31;;;;;;;10.48;6.93;;;;;;;-144.87;100.00;61487.56;5006625;28;20034;-70
2023/06/12 03:21:57;;;;;;;11.50;7.10;;;;;;;-144.87;100.00;61487.56;5015929;28;20128;-71
2023/06/12 03:24:26;;;;;;;12.10;7.63;;;;;;;-144.87;100.00;61487.56;5016731;28;20050;-70
2023/06/12 03:26:54;;;;;;;10.40;7.18;;;;;;;-144.87;100.00;61487.56;5018440;28;20037;-70
2023/06/12 03:29:20;;;;;;;12.60;7.63;;;;;;;-144.87;100.00;61487.56;4999105;28;20088;-71
2023/06/12 03:31:47;;;;;;;10.07;6.90;;;;;;;-144.87;100.00;61487.56;5011633;28;20145;-70
2023/06/12 03:34:15;;;;;;;11.43;6.97;;;;;;;-144.87;100.00;61487.56;4997552;28;20120;-71
2023/06/12 03:36:43;;;;;;;13.00;7.05;;;;;;;-144.87;100.00;61487.56;5021401;28;20038;-71
2023/06/12 03:39:12;;;;;;;14.48;7.25;;;;;;;-144.87;100.00;61487.56;5004712;28;20056;-71
2023/06/12 03:41:52;;;;;;;8.13;6.82;;;;;;;-144.87;100.00;61487.56;5015986;28;20088;-72
2023/06/12 03:44:18;;;;;;;16.52;8.55;;;;;;;-144.87;100.00;61487.56;5023861;28;20061;-70
2023/06/12 03:46:44;;;;;;;15.07;7.40;;;;;;;-144.87;100.00;61487.56;5016358;28;20057;-70
2023/06/12 03:49:11;;;;;;;29.30;7.10;;;;;;;-144.87;100.00;61487.56;5017359;28;20100;-71
2023/06/12 03:51:37;;;;;;;11.95;6.97;;;;;;;-144.87;100.00;61487.56;5022328;28;20132;-69
2023/06/12 03:54:05;;;;;;;9.35;7.22;;;;;;;-144.87;100.00;61487.56;5023909;28;20040;-72
2023/06/12 03:56:31;;;;;;;11.85;7.60;;;;;;;-144.87;100.00;61487.56;5023777;28;20553;-72
2023/06/12 03:58:58;;;;;;;12.93;7.03;;;;;;;-144.87;100.00;61487.56;5025519;28;20087;-71
2023/06/12 04:01:24;;;;;;;11.52;7.15;;;;;;;-144.87;100.00;61487.56;5025809;28;20465;-69
2023/06/12 04:03:51;;;;;;;10.10;7.40;;;;;;;-144.87;100.00;61487.56;5016460;28;20038;-70
2023/06/12 04:06:17;;;;;;;15.38;8.23;;;;;;;-144.87;100.00;61487.56;5023126;28;20088;-70
2023/06/12 04:08:46;;;;;;;19.20;7.57;;;;;;;-144.87;100.00;61487.56;4987802;28;20562;-69
2023/06/12 04:11:14;;;;;;;12.82;7.38;;;;;;;-144.87;100.00;61487.56;4991490;28;20045;-70
2023/06/12 04:13:44;;;;;;;11.77;7.57;;;;;;;-144.87;100.00;61487.56;4990578;28;20030;-71
2023/06/12 04:16:10;;;;;;;11.23;7.03;;;;;;;-144.87;100.00;61487.56;4997136;28;20041;-70
2023/06/12 04:18:37;;;;;;;12.80;7.57;;;;;;;-144.87;100.00;61487.56;4987336;28;20056;-70
2023/06/12 04:21:05;;;;;;;21.75;7.07;;;;;;;-144.87;100.00;61487.56;4977481;28;20122;-69
2023/06/12 04:23:32;;;;;;;14.88;7.22;;;;;;;-144.87;100.00;61487.56;4992702;28;20036;-70
2023/06/12 04:26:04;;;;;;;14.45;8.05;;;;;;;-144.87;100.00;61487.56;4990344;28;20048;-69
2023/06/12 04:28:32;;;;;;;13.15;7.30;;;;;;;-144.87;100.00;61487.56;4976693;28;20049;-70
2023/06/12 04:30:59;;;;;;;10.68;6.57;;;;;;;-144.87;100.00;61487.56;4983664;28;20213;-69
2023/06/12 04:33:45;;;;;;;11.48;6.85;;;;;;;-144.87;100.00;61487.56;4973757;28;20089;-70
2023/06/12 04:36:13;;;;;;;9.85;6.38;;;;;;;-144.87;100.00;61487.56;4961723;28;20089;-69
2023/06/12 04:38:40;;;;;;;10.65;6.97;;;;;;;-144.87;100.00;61487.56;4975724;28;20039;-69
2023/06/12 04:41:06;;;;;;;16.60;6.80;;;;;;;-144.87;100.00;61487.56;4991174;28;20066;-69
2023/06/12 04:43:32;;;;;;;12.55;6.80;;;;;;;-144.87;100.00;61487.56;4976220;28;20045;-68
2023/06/12 04:46:00;;;;;;;12.82;6.47;;;;;;;-144.87;100.00;61487.56;4975974;28;20122;-69
2023/06/12 04:48:26;;;;;;;11.10;7.07;;;;;;;-144.87;100.00;61487.56;5009079;28;20040;-69
2023/06/12 04:50:54;;;;;;;12.30;6.05;;;;;;;-144.87;100.00;61487.56;5011628;28;20034;-70
2023/06/12 04:53:29;;;;;;;17.50;7.05;;;;;;;-144.87;100.00;61487.56;4988389;28;20038;-70
2023/06/12 04:56:00;;;;;;;13.48;7.32;;;;;;;-144.87;100.00;61487.56;4976216;28;20054;-68
2023/06/12 04:58:27;;;;;;;7.35;6.03;;;;;;;-144.87;100.00;61487.56;4984401;28;20030;-69
2023/06/12 05:00:55;;;;;;;15.20;7.13;;;;;;;-144.87;100.00;61487.56;4985050;28;20046;-76
2023/06/12 05:03:22;;;;;;;14.15;6.85;;;;;;;-144.87;100.00;61487.56;4979351;28;20447;-69
2023/06/12 05:05:49;;;;;;;11.30;6.60;;;;;;;-144.87;100.00;61487.56;4996649;28;20090;-68
2023/06/12 05:08:15;;;;;;;9.38;6.55;;;;;;;-144.87;100.00;61487.56;5019500;28;20058;-69
2023/06/12 05:10:43;;;;;;;12.40;6.53;;;;;;;-144.87;100.00;61487.56;4994224;28;20034;-72
2023/06/12 05:13:10;;;;;;;8.52;6.88;;;;;;;-144.87;100.00;61487.56;5000416;28;20057;-71
2023/06/12 05:15:37;;;;;;;13.75;6.68;;;;;;;-144.87;100.00;61487.56;4988827;28;20136;-70
2023/06/12 05:18:03;;;;;;;12.35;6.57;;;;;;;-144.87;100.00;61487.56;5016732;28;20518;-69
2023/06/12 05:20:30;;;;;;;7.22;6.00;;;;;;;-144.87;100.00;61487.56;5018562;28;20033;-69
2023/06/12 05:22:57;;;;;;;15.73;6.30;;;;;;;-144.87;100.00;61487.56;5018669;28;20034;-69
2023/06/12 05:25:24;;;;;;;11.88;6.38;;;;;;;-144.87;100.00;61487.56;4998578;28;20040;-69
2023/06/12 05:27:50;;;;;;;10.98;6.45;;;;;;;-144.87;100.00;61487.56;5025368;28;20052;-69
2023/06/12 05:30:17;;;;;;;10.90;6.35;;;;;;;-144.87;100.00;61487.56;5002177;28;20026;-71
2023/06/12 05:32:43;;;;;;;10.13;6.95;;;;;;;-144.87;100.00;61487.56;5024783;28;20026;-70
2023/06/12 05:35:11;;;;;;;14.85;6.53;;;;;;;-144.87;100.00;61487.56;5018250;28;20470;-71
2023/06/12 05:37:37;;;;;;;13.00;6.85;;;;;;;-144.87;100.00;61487.56;5010203;28;20034;-69
2023/06/12 05:40:05;;;;;;;10.05;6.43;;;;;;;-144.87;100.00;61487.56;5024318;28;20088;-69
2023/06/12 05:42:32;;;;;;;10.30;6.38;;;;;;;-144.87;100.00;61487.56;5026936;28;20575;-71
2023/06/12 05:44:58;;;;;;;13.13;6.63;;;;;;;-144.87;100.00;61487.56;5024309;28;20090;-69
2023/06/12 05:47:25;;;;;;;7.82;6.07;;;;;;;-144.87;100.00;61487.56;5021519;28;20122;-69
2023/06/12 05:49:51;;;;;;;8.27;5.95;;;;;;;-144.87;100.00;61487.56;5043284;28;20061;-69
2023/06/12 05:52:18;;;;;;;12.40;6.47;;;;;;;-144.87;100.00;61487.56;5011260;28;20387;-70
2023/06/12 05:54:45;;;;;;;12.68;6.65;;;;;;;-144.87;100.00;61487.56;5019334;28;20037;-68
2023/06/12 05:57:13;;;;;;;8.45;6.28;;;;;;;-144.87;100.00;61487.56;5008400;28;20351;-72
2023/06/12 05:59:43;;;;;;;24.23;6.55;;;;;;;-144.87;100.00;61487.56;4994104;28;20116;-72
2023/06/12 06:02:10;;;;;;;12.38;5.97;;;;;;;-144.87;100.00;61487.56;5015583;28;20715;-70
2023/06/12 06:04:36;;;;;;;14.02;6.35;;;;;;;-144.87;100.00;61487.56;5014249;28;20126;-70
2023/06/12 06:07:03;;;;;;;11.93;6.30;;;;;;;-144.87;100.00;61487.56;5020597;28;20106;-71
2023/06/12 06:09:31;;;;;;;11.88;6.07;;;;;;;-144.87;100.00;61487.56;4974153;28;20046;-71
2023/06/12 06:11:57;;;;;;;10.05;6.15;;;;;;;-144.87;100.00;61487.56;4982485;28;20221;-70
2023/06/12 06:14:24;;;;;;;11.38;6.15;;;;;;;-144.87;100.00;61487.56;4976960;28;20035;-71
2023/06/12 06:16:50;;;;;;;10.55;6.25;;;;;;;-144.87;100.00;61487.56;4985451;28;20042;-71
2023/06/12 06:19:16;;;;;;;25.73;7.40;;;;;;;-144.87;100.00;61487.56;4978328;28;20068;-71
2023/06/12 06:21:43;;;;;;;11.15;6.10;;;;;;;-144.87;100.00;61487.56;4998838;28;20050;-71
2023/06/12 06:24:09;;;;;;;10.27;6.43;;;;;;;-144.87;100.00;61487.56;4982209;28;20179;-71
2023/06/12 06:26:36;;;;;;;14.07;6.10;;;;;;;-144.87;100.00;61487.56;4968878;28;20065;-71
2023/06/12 06:29:03;;;;;;;9.45;5.95;;;;;;;-144.87;100.00;61487.56;4988332;28;20034;-70
2023/06/12 06:31:30;;;;;;;13.70;6.28;;;;;;;-144.87;100.00;61487.56;4982806;28;20435;-70
2023/06/12 06:33:56;;;;;;;10.43;6.75;;;;;;;-144.87;100.00;61487.56;5007187;28;20046;-69
2023/06/12 06:36:23;;;;;;;13.48;5.68;;;;;;;-144.87;100.00;61487.56;4992049;28;20026;-70
2023/06/12 06:38:50;;;;;;;11.32;5.95;;;;;;;-144.87;100.00;61487.56;4992342;28;20046;-71
2023/06/12 06:41:16;;;;;;;8.50;5.97;;;;;;;-144.87;100.00;61487.56;4994776;28;20037;-70
2023/06/12 06:43:42;;;;;;;11.18;5.88;;;;;;;-144.87;100.00;61487.56;4978639;28;20038;-72
2023/06/12 06:46:13;;;;;;;7.70;6.18;;;;;;;-144.87;100.00;61487.56;4991195;28;20042;-71
2023/06/12 06:48:40;;;;;;;9.30;6.15;;;;;;;-144.87;100.00;61487.56;4994009;28;20042;-71
2023/06/12 06:51:07;;;;;;;11.60;5.80;;;;;;;-144.87;100.00;61487.56;4995236;28;20044;-70
2023/06/12 06:53:34;;;;;;;9.55;6.32;;;;;;;-144.87;100.00;61487.56;4995560;28;20044;-71
2023/06/12 06:56:02;;;;;;;9.35;6.05;;;;;;;-144.87;100.00;61487.56;4997629;28;20038;-70
2023/06/12 06:58:28;;;;;;;11.90;6.07;;;;;;;-144.87;100.00;61487.56;4963276;28;20590;-71
2023/06/12 07:00:54;;;;;;;8.57;5.88;;;;;;;-144.87;100.00;61487.56;4972496;28;20069;-70
2023/06/12 07:03:21;;;;;;;10.05;5.93;;;;;;;-144.87;100.00;61487.56;4983973;28;20062;-71
2023/06/12 07:05:47;;;;;;;12.27;6.43;;;;;;;-144.87;100.00;61487.56;4993935;28;20042;-71
2023/06/12 07:08:14;;;;;;;11.57;6.13;;;;;;;-144.87;100.00;61487.56;5008310;28;20060;-71
2023/06/12 07:10:41;;;;;;;9.77;6.43;;;;;;;-144.87;100.00;61487.56;5036717;28;20038;-70
2023/06/12 07:13:11;;;;;;;8.70;6.10;;;;;;;-144.87;100.00;61487.56;5027926;28;20120;-70
2023/06/12 07:15:43;;;;;;;8.68;5.97;;;;;;;-144.87;100.00;61487.56;5001856;28;20064;-69
2023/06/12 07:18:10;;;;;;;9.93;5.93;;;;;;;-144.87;100.00;61487.56;4987900;28;20540;-72
2023/06/12 07:20:37;;;;;;;10.23;6.78;;;;;;;-144.87;100.00;61487.56;5018918;28;20029;-71
2023/06/12 07:23:04;;;;;;;15.57;6.35;;;;;;;-144.87;100.00;61487.56;5026136;28;20072;-70
2023/06/12 07:25:30;;;;;;;11.55;6.20;;;;;;;-144.87;100.00;61487.56;5021437;28;20041;-70
2023/06/12 07:27:57;;;;;;;7.88;6.28;;;;;;;-144.87;100.00;61487.56;5010636;28;20036;-69
2023/06/12 07:30:24;;;;;;;10.40;6.50;;;;;;;-144.87;100.00;61487.56;5016970;28;20049;-70
2023/06/12 07:32:50;;;;;;;11.57;6.05;;;;;;;-144.87;100.00;61487.56;5009590;28;20065;-70
2023/06/12 07:35:17;;;;;;;18.63;6.78;;;;;;;-144.87;100.00;61487.56;5014691;28;20317;-70
2023/06/12 07:37:49;;;;;;;9.35;6.57;;;;;;;-144.87;100.00;61487.56;5021289;28;20052;-70
2023/06/12 07:40:16;;;;;;;14.43;6.43;;;;;;;-144.87;100.00;61487.56;5023813;28;20029;-69
2023/06/12 07:42:42;;;;;;;10.23;5.90;;;;;;;-144.87;100.00;61487.56;5014300;28;20034;-71
2023/06/12 07:45:10;;;;;;;14.60;5.97;;;;;;;-144.87;100.00;61487.56;5023659;28;20040;-71
2023/06/12 07:47:38;;;;;;;14.48;6.22;;;;;;;-144.87;100.00;61487.56;4996653;28;20034;-71
2023/06/12 07:50:05;;;;;;;16.02;6.75;;;;;;;-144.87;100.00;61487.56;5018603;28;20034;-70
2023/06/12 07:52:33;;;;;;;8.73;5.90;;;;;;;-144.87;100.00;61487.56;5012182;28;20064;-70
2023/06/12 07:55:00;;;;;;;14.73;7.00;;;;;;;-144.87;100.00;61487.56;5025467;28;20052;-70
2023/06/12 07:57:28;;;;;;;15.00;6.45;;;;;;;-144.87;100.00;61487.56;5011236;28;20030;-69
2023/06/12 07:59:54;;;;;;;10.00;5.85;;;;;;;-144.87;100.00;61487.56;4996559;28;20048;-70
2023/06/12 08:02:21;;;;;;;14.43;6.13;;;;;;;-144.87;100.00;61487.56;5016511;28;20038;-70
2023/06/12 08:04:47;;;;;;;8.13;5.90;;;;;;;-144.87;100.00;61487.56;5010225;28;20499;-70
2023/06/12 08:07:16;;;;;;;12.55;6.55;;;;;;;-144.87;100.00;61487.56;5025990;28;20129;-70
2023/06/12 08:09:44;;;;;;;7.65;6.47;;;;;;;-144.87;100.00;61487.56;4969388;28;20034;-70
2023/06/12 08:12:11;;;;;;;10.38;5.80;;;;;;;-144.87;100.00;61487.56;4961601;28;20041;-69
2023/06/12 08:14:39;;;;;;;12.13;6.45;;;;;;;-144.87;100.00;61487.56;4977709;28;20030;-70
2023/06/12 08:17:06;;;;;;;14.20;6.78;;;;;;;-144.87;100.00;61487.56;4975388;28;20057;-69
2023/06/12 08:19:34;;;;;;;11.82;7.10;;;;;;;-144.87;100.00;61487.56;4970807;28;20404;-71
2023/06/12 08:22:01;;;;;;;13.40;6.03;;;;;;;-144.87;100.00;61487.56;4969022;28;20046;-70
2023/06/12 08:24:30;;;;;;;21.88;6.28;;;;;;;-144.87;100.00;61487.56;4961093;28;20054;-71
2023/06/12 08:27:01;;;;;;;12.05;6.82;;;;;;;-144.87;100.00;61487.56;4968356;28;20124;-71
2023/06/12 08:29:27;;;;;;;10.48;6.05;;;;;;;-144.87;100.00;61487.56;4970196;28;20042;-71
2023/06/12 08:31:54;;;;;;;10.70;6.00;;;;;;;-144.87;100.00;61487.56;5005797;28;20030;-71
2023/06/12 08:34:24;;;;;;;8.98;5.68;;;;;;;-144.87;100.00;61487.56;4964849;28;20057;-71
2023/06/12 08:36:54;;;;;;;11.73;5.85;;;;;;;-144.87;100.00;61487.56;4980545;28;20093;-71
2023/06/12 08:39:21;;;;;;;12.38;5.57;;;;;;;-144.87;100.00;61487.56;4992798;28;20145;-71
2023/06/12 08:42:09;;;;;;;9.73;6.15;;;;;;;-144.87;100.00;61487.56;4957240;28;20116;-70
2023/06/12 08:44:36;;;;;;;11.63;5.93;;;;;;;-144.87;100.00;61487.56;4991219;28;20069;-70
2023/06/12 08:47:03;;;;;;;11.05;5.97;;;;;;;-144.87;100.00;61487.56;4994201;28;20061;-69
2023/06/12 08:49:31;;;;;;;11.07;5.95;;;;;;;-144.87;100.00;61487.56;4990672;28;20137;-71
2023/06/12 08:51:57;;;;;;;11.43;5.60;;;;;;;-144.87;100.00;61487.56;4976838;28;20026;-69
2023/06/12 08:54:23;;;;;;;8.43;5.13;;;;;;;-144.87;100.00;61487.56;4969395;28;20038;-69
2023/06/12 08:56:51;;;;;;;9.68;5.70;;;;;;;-144.87;100.00;61487.56;4964575;28;20111;-70
2023/06/12 08:59:18;;;;;;;10.13;5.65;;;;;;;-144.87;100.00;61487.56;4991518;28;20480;-71
2023/06/12 09:01:50;;;;;;;9.32;5.57;;;;;;;-144.87;100.00;61487.56;5001237;28;20046;-71
2023/06/12 09:04:28;;;;;;;10.88;5.22;;;;;;;-144.87;100.00;61487.56;5000859;28;20034;-70
2023/06/12 09:07:01;;;;;;;10.85;5.40;;;;;;;-144.87;100.00;61487.56;5008222;28;20117;-70
2023/06/12 09:09:39;;;;;;;9.27;5.78;;;;;;;-144.87;100.00;61487.56;5028034;28;20447;-70
2023/06/12 09:12:10;;;;;;;12.27;6.22;;;;;;;-144.87;100.00;61487.56;5014637;28;20041;-70
2023/06/12 09:14:37;;;;;;;12.43;5.82;;;;;;;-144.87;100.00;61487.56;5032931;28;20038;-70
2023/06/12 09:17:04;;;;;;;7.53;5.75;;;;;;;-144.87;100.00;61487.56;5027576;28;20050;-70
2023/06/12 09:19:44;;;;;;;9.57;5.75;;;;;;;-144.87;100.00;61487.56;5034628;28;20088;-69
2023/06/12 09:22:11;;;;;;;10.75;6.30;;;;;;;-144.87;100.00;61487.56;5031097;28;20049;-70
2023/06/12 09:24:38;;;;;;;16.98;5.80;;;;;;;-144.87;100.00;61487.56;5022912;28;20041;-69
2023/06/12 09:27:05;;;;;;;10.25;6.60;;;;;;;-144.87;100.00;61487.56;5013304;28;20067;-68
2023/06/12 09:29:34;;;;;;;12.68;6.03;;;;;;;-144.87;100.00;61487.56;5026930;28;20656;-70
2023/06/12 09:32:10;;;;;;;6.93;6.05;;;;;;;-144.87;100.00;61487.56;5025913;28;20041;-71
2023/06/12 09:34:36;;;;;;;8.40;6.15;;;;;;;-144.87;100.00;61487.56;5028825;28;20048;-72
2023/06/12 09:37:09;;;;;;;9.05;5.50;;;;;;;-144.87;100.00;61487.56;5038080;28;20045;-72
2023/06/12 09:39:36;;;;;;;8.13;5.43;;;;;;;-144.87;100.00;61487.56;5018474;28;20041;-70
2023/06/12 09:42:03;;;;;;;7.32;5.43;;;;;;;-144.87;100.00;61487.56;5021064;28;20025;-71
2023/06/12 09:44:30;;;;;;;17.00;5.68;;;;;;;-144.87;100.00;61487.56;5002472;28;20037;-71
2023/06/12 09:47:04;;;;;;;9.20;5.30;;;;;;;-144.87;100.00;61487.56;5012116;28;20384;-70
2023/06/12 09:49:35;;;;;;;11.90;5.88;;;;;;;-144.87;100.00;61487.56;5012894;28;20042;-72
2023/06/12 09:52:04;;;;;;;15.02;5.10;;;;;;;-144.87;100.00;61487.56;5013178;28;20107;-70
2023/06/12 09:54:32;;;;;;;9.82;5.90;;;;;;;-144.87;100.00;61487.56;5016587;28;20103;-71
2023/06/12 09:57:02;;;;;;;6.93;5.20;;;;;;;-144.87;100.00;61487.56;5031234;28;20037;-70
2023/06/12 09:59:32;;;;;;;15.93;6.00;;;;;;;-144.87;100.00;61487.56;5031140;28;20045;-70
2023/06/12 10:02:09;;;;;;;12.35;5.50;;;;;;;-144.87;100.00;61487.56;5029416;28;20052;-71
2023/06/12 10:04:49;;;;;;;9.93;5.57;;;;;;;-144.87;100.00;61487.56;5028785;28;20097;-70
2023/06/12 10:07:38;;;;;;;11.95;5.63;;;;;;;-144.87;100.00;61487.56;5030843;28;20065;-71
2023/06/12 10:10:07;;;;;;;8.00;5.57;;;;;;;-144.87;100.00;61487.56;4985943;28;20046;-72
2023/06/12 10:12:34;;;;;;;8.53;5.43;;;;;;;-144.87;100.00;61487.56;5010960;28;20042;-71
2023/06/12 10:15:05;;;;;;;11.45;5.72;;;;;;;-144.87;100.00;61487.56;4992730;28;20060;-71
2023/06/12 10:17:32;;;;;;;10.82;5.82;;;;;;;-144.87;100.00;61487.56;4995270;28;20435;-71
2023/06/12 10:19:59;;;;;;;7.85;5.22;;;;;;;-144.87;100.00;61487.56;4975600;28;20096;-71
2023/06/12 10:22:25;;;;;;;10.82;6.00;;;;;;;-144.87;100.00;61487.56;4995113;28;20165;-71
2023/06/12 10:24:51;;;;;;;7.25;5.45;;;;;;;-144.87;100.00;61487.56;4974629;28;20424;-71
2023/06/12 10:27:19;;;;;;;8.82;5.45;;;;;;;-144.87;100.00;61487.56;4975620;28;20038;-71
2023/06/12 10:29:55;;;;;;;6.60;5.22;;;;;;;-144.87;100.00;61487.56;4984714;28;20048;-73
2023/06/12 10:32:22;;;;;;;7.40;4.97;;;;;;;-144.87;100.00;61487.56;4994580;28;20499;-71
2023/06/12 10:34:48;;;;;;;8.15;5.10;;;;;;;-144.87;100.00;61487.56;4992923;28;20043;-70
2023/06/12 10:37:37;;;;;;;13.30;5.10;;;;;;;-144.87;100.00;61487.56;4980856;28;20034;-70
2023/06/12 10:40:16;;;;;;;12.93;5.30;;;;;;;-144.87;100.00;61487.56;4981870;28;20034;-71
2023/06/12 10:42:53;;;;;;;10.80;5.40;;;;;;;-144.87;100.00;61487.56;4996080;28;20038;-71
2023/06/12 10:45:26;;;;;;;12.18;5.43;;;;;;;-144.87;100.00;61487.56;5000269;28;20042;-71
2023/06/12 10:48:07;;;;;;;14.15;5.57;;;;;;;-144.87;100.00;61487.56;4993993;28;20038;-70
2023/06/12 10:50:34;;;;;;;5.53;4.70;;;;;;;-144.87;100.00;61487.56;4991865;28;20038;-71
2023/06/12 10:53:05;;;;;;;16.73;5.18;;;;;;;-144.87;100.00;61487.56;4974471;28;20034;-71
2023/06/12 10:55:35;;;;;;;10.93;4.95;;;;;;;-144.87;100.00;61487.56;4989614;28;20052;-71
2023/06/12 10:58:07;;;;;;;20.60;5.65;;;;;;;-144.87;100.00;61487.56;4979379;28;20058;-69
2023/06/12 11:00:42;;;;;;;7.70;5.03;;;;;;;-144.87;100.00;61487.56;4993045;28;20045;-71
2023/06/12 11:03:11;;;;;;;9.70;5.15;;;;;;;-144.87;100.00;61487.56;5014679;28;20122;-72
2023/06/12 11:05:38;;;;;;;6.50;4.85;;;;;;;-144.87;100.00;61487.56;5009764;28;20061;-69
2023/06/12 11:08:06;;;;;;;7.22;5.00;;;;;;;-144.87;100.00;61487.56;5000778;28;20046;-69
2023/06/12 11:10:34;;;;;;;13.25;5.15;;;;;;;-144.87;100.00;61487.56;4977521;28;20400;-70
2023/06/12 11:13:01;;;;;;;7.95;4.97;;;;;;;-144.87;100.00;61487.56;4976505;28;20050;-71